This is the latest recevied weather packets stored in our database for station/object WB9TLH-12. If no packets are shown the sender has not sent any weather packets the latest 1 day(s).
| Time | Temp. | Humidity | Pressure | Rain* | Wind** | Luminosity | Snow |
|---|---|---|---|---|---|---|---|
| 1778097699 | 15.56° C | 46% | 1012.5 hPa | 0 mm | - | - | - |
| 1778096498 | 15° C | 45% | 1012.6 hPa | 0.25 mm | - | - | - |
| 1778095597 | 15° C | 46% | 1012.7 hPa | 0.25 mm | - | - | - |
| 1778094396 | 15° C | 47% | 1012.7 hPa | 0.25 mm | - | - | - |
| 1778092594 | 14.44° C | 50% | 1012.5 hPa | 0 mm | - | - | - |
| 1778091393 | 15° C | 47% | 1012.6 hPa | 0 mm | - | - | - |
| 1778090492 | 14.44° C | 52% | 1012.5 hPa | 0 mm | - | - | - |
| 1778089291 | 14.44° C | 55% | 1012.6 hPa | 0 mm | - | - | - |
| 1778088390 | 14.44° C | 56% | 1012.8 hPa | 0 mm | - | - | - |
| 1778087189 | 14.44° C | 58% | 1012.9 hPa | 0 mm | - | - | - |
| 1778086588 | 13.89° C | 58% | 1013 hPa | 0 mm | - | - | - |
| 1778086288 | 13.89° C | 60% | 1013.1 hPa | 0 mm | - | - | - |
| 1778084186 | 13.33° C | 59% | 1012.7 hPa | 0 mm | - | - | - |
| 1778082384 | 12.78° C | 65% | 1012.4 hPa | 0.25 mm | - | - | - |
| 1778082084 | 12.78° C | 66% | 1012.7 hPa | 0.25 mm | - | - | - |
| 1778081483 | 12.78° C | 68% | 1012.4 hPa | 0.25 mm | - | - | - |
| 1778081183 | 12.78° C | 71% | 1012.5 hPa | 0.25 mm | - | - | - |
| 1778080582 | 12.22° C | 77% | 1012.4 hPa | 0.25 mm | - | - | - |
| 1778080282 | 12.22° C | 77% | 1012.3 hPa | 0.25 mm | - | - | - |
| 1778079982 | 11.67° C | 77% | 1012.4 hPa | 0.25 mm | - | - | - |
| 1778079381 | 11.67° C | 80% | 1012.5 hPa | 0.25 mm | - | - | - |
| 1778079081 | 11.11° C | 83% | 1012.5 hPa | 0 mm | - | - | - |
| 1778078180 | 10.56° C | 87% | 1012.5 hPa | 0 mm | - | - | - |
| 1778076979 | 9.44° C | 94% | 1012 hPa | 0 mm | - | - | - |
| 1778076378 | 8.89° C | 94% | 1012.2 hPa | 0 mm | - | - | - |
* Rain latest hour (hover to see other rain measurements)
** Current wind speed in m/s (hover to see current wind gust speed)